createdAt,value
2019-05-13T00:02:17.431Z,7.10
2019-05-13T00:04:53.243Z,7.20
2019-05-13T00:07:29.017Z,7.10
2019-05-13T00:10:04.089Z,7.20
2019-05-13T00:12:36.303Z,7.10
2019-05-13T00:15:09.095Z,7.00
2019-05-13T00:17:41.433Z,7.00
2019-05-13T00:20:14.101Z,6.90
2019-05-13T00:22:44.753Z,6.90
2019-05-13T00:25:16.284Z,6.80
2019-05-13T00:27:46.634Z,6.80
2019-05-13T00:31:06.635Z,7.00
2019-05-13T00:33:37.304Z,7.50
2019-05-13T00:36:07.006Z,7.80
2019-05-13T00:38:37.411Z,7.70
2019-05-13T00:41:08.443Z,7.50
2019-05-13T00:43:41.117Z,7.50
2019-05-13T00:46:14.218Z,7.40
2019-05-13T00:48:45.183Z,7.20
2019-05-13T00:51:16.128Z,7.10
2019-05-13T00:53:46.839Z,7.00
2019-05-13T00:56:17.991Z,7.00
2019-05-13T00:58:49.384Z,7.00
2019-05-13T01:01:19.252Z,7.00
2019-05-13T01:03:50.537Z,6.90
2019-05-13T01:06:23.698Z,6.80
2019-05-13T01:08:54.232Z,7.10
2019-05-13T01:11:26.335Z,7.70
2019-05-13T01:13:56.640Z,8.00
2019-05-13T01:16:27.118Z,8.40
2019-05-13T01:18:57.275Z,8.50
2019-05-13T01:21:27.115Z,8.70
2019-05-13T01:23:59.109Z,8.60
2019-05-13T01:26:29.544Z,8.60
2019-05-13T01:29:01.406Z,8.60
2019-05-13T01:31:34.382Z,8.40
2019-05-13T01:34:06.072Z,8.30
2019-05-13T01:36:35.858Z,8.30
2019-05-13T01:39:07.481Z,8.20
2019-05-13T01:41:39.451Z,8.20
2019-05-13T01:44:11.041Z,8.10
2019-05-13T01:46:43.726Z,8.00
2019-05-13T01:49:14.334Z,8.00
2019-05-13T01:51:47.461Z,7.90
2019-05-13T01:54:19.262Z,7.80
2019-05-13T01:56:53.023Z,7.80
2019-05-13T01:59:24.546Z,7.90
2019-05-13T02:01:56.635Z,8.10
2019-05-13T02:04:28.759Z,8.20
2019-05-13T02:07:04.269Z,8.00
2019-05-13T02:09:36.749Z,8.00
2019-05-13T02:12:07.557Z,8.00
2019-05-13T02:14:39.110Z,7.90
2019-05-13T02:17:14.452Z,8.00
2019-05-13T02:19:45.103Z,8.20
2019-05-13T02:22:16.503Z,8.10
2019-05-13T02:24:48.593Z,8.10
2019-05-13T02:27:19.472Z,8.00
2019-05-13T02:29:50.050Z,7.90
2019-05-13T02:32:28.054Z,7.80
2019-05-13T02:35:02.600Z,7.80
2019-05-13T02:37:35.050Z,7.70
2019-05-13T02:40:13.196Z,7.60
2019-05-13T02:42:43.914Z,7.60
2019-05-13T02:45:15.963Z,7.80
2019-05-13T02:48:03.163Z,7.80
2019-05-13T02:50:33.786Z,7.70
2019-05-13T02:53:04.017Z,7.80
2019-05-13T02:55:35.220Z,7.80
2019-05-13T02:58:07.032Z,7.70
2019-05-13T03:00:39.405Z,7.60
2019-05-13T03:03:14.532Z,7.60
2019-05-13T03:05:45.901Z,7.60
2019-05-13T03:08:34.012Z,7.60
2019-05-13T03:10:52.919Z,7.60
2019-05-13T03:13:23.436Z,7.50
2019-05-13T03:16:07.648Z,7.50
2019-05-13T03:18:37.964Z,7.50
2019-05-13T03:21:12.688Z,7.50
2019-05-13T03:24:03.553Z,7.40
2019-05-13T03:26:53.644Z,7.40
2019-05-13T03:29:27.651Z,7.40
2019-05-13T03:32:06.932Z,7.30
2019-05-13T03:34:36.676Z,7.20
2019-05-13T03:37:14.738Z,7.00
2019-05-13T03:40:23.054Z,6.70
2019-05-13T03:43:07.478Z,6.60
2019-05-13T03:45:47.903Z,6.30
2019-05-13T04:07:47.112Z,5.80
2019-05-13T04:14:42.723Z,5.90
2019-05-13T04:17:56.474Z,6.00
2019-05-13T04:24:04.582Z,6.10
2019-05-13T04:27:32.707Z,6.10
2019-05-13T04:30:03.404Z,6.20
2019-05-13T04:32:36.434Z,6.30
2019-05-13T04:43:35.906Z,6.80
2019-05-13T04:50:14.785Z,12.10
2019-05-13T04:55:44.739Z,13.70
2019-05-13T04:58:16.187Z,14.80
2019-05-13T05:01:55.242Z,15.30
2019-05-13T05:10:10.279Z,15.60
2019-05-13T05:25:22.084Z,19.60
2019-05-13T05:28:48.581Z,21.00
2019-05-13T05:43:45.186Z,20.10
2019-05-13T05:46:51.403Z,19.80
2019-05-13T05:52:43.215Z,19.90
2019-05-13T06:06:22.709Z,19.60
2019-05-13T06:12:42.324Z,18.50
2019-05-13T06:21:53.328Z,16.90
2019-05-13T06:24:38.353Z,17.60
2019-05-13T06:28:12.417Z,19.20
2019-05-13T06:30:48.551Z,17.10
2019-05-13T06:33:42.139Z,18.30
2019-05-13T06:36:34.498Z,17.50
2019-05-13T06:39:31.736Z,17.00
2019-05-13T06:42:37.526Z,17.60
2019-05-13T06:49:51.597Z,17.90
2019-05-13T06:52:54.874Z,18.80
2019-05-13T06:59:34.357Z,19.30
2019-05-13T07:06:21.716Z,18.60
2019-05-13T07:12:31.544Z,18.50
2019-05-13T07:15:57.056Z,19.90
2019-05-13T07:18:52.085Z,19.40
2019-05-13T07:21:54.587Z,19.20
2019-05-13T07:24:32.532Z,18.60
2019-05-13T07:27:43.766Z,19.00
2019-05-13T07:34:24.584Z,18.90
2019-05-13T07:48:20.703Z,20.00
2019-05-13T07:54:22.077Z,20.70
2019-05-13T07:57:55.027Z,20.30
2019-05-13T08:01:03.069Z,20.10
2019-05-13T08:07:37.305Z,20.80
2019-05-13T08:11:05.802Z,20.90
2019-05-13T08:14:12.339Z,20.70
2019-05-13T08:17:11.684Z,20.50
2019-05-13T08:19:58.132Z,19.10
2019-05-13T08:22:31.886Z,18.50
2019-05-13T08:25:03.180Z,19.30
2019-05-13T08:27:35.055Z,19.40
2019-05-13T08:30:06.419Z,20.20
2019-05-13T08:32:42.033Z,20.20
2019-05-13T08:35:13.643Z,19.70
2019-05-13T08:37:46.519Z,19.80
2019-05-13T08:40:20.307Z,22.10
2019-05-13T08:42:52.546Z,21.60
2019-05-13T08:45:23.291Z,21.90
2019-05-13T08:47:54.712Z,21.90
2019-05-13T08:50:26.317Z,22.00
2019-05-13T08:53:34.748Z,19.70
2019-05-13T08:56:32.801Z,20.40
2019-05-13T08:59:14.271Z,22.30
2019-05-13T09:05:26.469Z,23.00
2019-05-13T09:08:32.112Z,22.50
2019-05-13T09:15:18.801Z,22.20
2019-05-13T09:21:42.471Z,21.20
2019-05-13T09:24:27.107Z,22.00
2019-05-13T09:34:12.364Z,23.00
2019-05-13T09:40:02.398Z,23.50
2019-05-13T09:43:04.213Z,23.50
2019-05-13T09:46:02.138Z,24.00
2019-05-13T09:52:27.092Z,23.20
2019-05-13T09:55:37.278Z,22.10
2019-05-13T10:02:03.326Z,23.10
2019-05-13T10:05:05.937Z,22.90
2019-05-13T10:07:42.650Z,22.30
2019-05-13T10:11:21.784Z,22.70
2019-05-13T10:14:01.892Z,23.40
2019-05-13T10:16:58.370Z,22.20
2019-05-13T10:19:32.620Z,22.90
2019-05-13T10:22:11.991Z,23.20
2019-05-13T10:25:02.494Z,23.90
2019-05-13T10:27:43.723Z,24.40
2019-05-13T10:30:17.837Z,24.70
2019-05-13T10:42:32.033Z,24.00
2019-05-13T10:45:05.100Z,24.90
2019-05-13T10:47:38.602Z,24.60
2019-05-13T10:50:10.612Z,23.30
2019-05-13T10:52:42.551Z,22.90
2019-05-13T10:55:12.852Z,23.10
2019-05-13T10:57:43.742Z,22.60
2019-05-13T11:00:15.720Z,23.00
2019-05-13T11:02:47.678Z,22.30
2019-05-13T11:05:28.169Z,23.10
2019-05-13T11:08:02.632Z,22.70
2019-05-13T11:10:42.124Z,23.10
2019-05-13T11:13:12.377Z,23.20
2019-05-13T11:15:47.301Z,23.10
2019-05-13T11:18:19.255Z,22.80
2019-05-13T11:20:55.849Z,22.80
2019-05-13T11:23:33.827Z,22.20
2019-05-13T11:26:28.777Z,22.20
2019-05-13T11:29:23.235Z,22.80
2019-05-13T11:31:56.371Z,23.50
2019-05-13T11:34:33.599Z,23.00
2019-05-13T11:37:19.738Z,22.80
2019-05-13T11:39:52.394Z,22.70
2019-05-13T11:42:25.675Z,23.00
2019-05-13T11:45:02.827Z,22.40
2019-05-13T11:47:38.550Z,22.90
2019-05-13T11:50:30.077Z,23.60
2019-05-13T11:53:41.690Z,23.80
2019-05-13T12:00:04.660Z,23.40
2019-05-13T12:02:57.233Z,23.60
2019-05-13T12:05:32.654Z,23.30
2019-05-13T12:08:06.852Z,23.20
2019-05-13T12:10:43.753Z,23.50
2019-05-13T12:13:53.039Z,23.20
2019-05-13T12:16:38.345Z,23.50
2019-05-13T12:19:07.596Z,23.10
2019-05-13T12:21:42.087Z,22.50
2019-05-13T12:24:11.083Z,23.00
2019-05-13T12:26:38.492Z,22.60
2019-05-13T12:29:17.614Z,22.80
2019-05-13T12:31:38.937Z,22.70
2019-05-13T12:34:12.686Z,23.30
2019-05-13T12:36:43.243Z,23.60
2019-05-13T12:39:13.816Z,23.30
2019-05-13T12:41:42.802Z,22.90
2019-05-13T12:44:13.159Z,22.50
2019-05-13T12:46:50.177Z,22.10
2019-05-13T12:49:16.130Z,22.50
2019-05-13T12:51:46.885Z,22.70
2019-05-13T12:54:23.385Z,23.00
2019-05-13T12:57:43.144Z,22.90
2019-05-13T13:00:56.253Z,21.60
2019-05-13T13:03:47.998Z,21.60
2019-05-13T13:06:56.283Z,21.40
2019-05-13T13:09:43.211Z,21.40
2019-05-13T13:12:29.598Z,22.10
2019-05-13T13:14:59.113Z,22.10
2019-05-13T13:18:22.355Z,21.60
2019-05-13T13:21:17.962Z,20.60
2019-05-13T13:23:47.306Z,20.20
2019-05-13T13:26:18.355Z,20.30
2019-05-13T13:28:47.875Z,20.30
2019-05-13T13:31:18.969Z,19.90
2019-05-13T13:33:53.957Z,19.80
2019-05-13T13:36:24.346Z,19.60
2019-05-13T13:38:56.565Z,19.90
2019-05-13T13:41:32.671Z,19.90
2019-05-13T13:44:06.879Z,19.80
2019-05-13T13:46:44.300Z,20.00
2019-05-13T13:49:15.672Z,20.20
2019-05-13T13:51:49.736Z,20.20
2019-05-13T13:54:22.740Z,19.80
2019-05-13T13:56:56.245Z,19.50
2019-05-13T13:59:26.895Z,19.30
2019-05-13T14:01:58.678Z,19.30
2019-05-13T14:04:31.384Z,19.30
2019-05-13T14:07:30.016Z,19.50
2019-05-13T14:09:33.966Z,19.50
2019-05-13T14:12:04.295Z,19.10
2019-05-13T14:14:33.396Z,18.80
2019-05-13T14:17:05.792Z,18.80
2019-05-13T14:19:35.769Z,18.80
2019-05-13T14:22:05.521Z,19.30
2019-05-13T14:24:36.369Z,19.40
2019-05-13T14:27:06.140Z,19.20
2019-05-13T14:29:41.078Z,19.10
2019-05-13T14:32:06.119Z,19.10
2019-05-13T14:34:35.271Z,19.10
2019-05-13T14:37:04.923Z,18.90
2019-05-13T14:39:36.228Z,19.30
2019-05-13T14:42:06.388Z,19.50
2019-05-13T14:44:35.579Z,19.20
2019-05-13T14:47:05.766Z,19.00
2019-05-13T14:49:36.942Z,18.80
2019-05-13T14:52:08.163Z,18.70
2019-05-13T14:54:41.849Z,18.50
2019-05-13T14:57:12.596Z,18.60
2019-05-13T14:59:41.891Z,18.50
2019-05-13T15:02:12.021Z,18.50
2019-05-13T15:04:42.046Z,18.30
2019-05-13T15:07:12.282Z,18.40
2019-05-13T15:09:42.587Z,18.40
2019-05-13T15:12:12.009Z,18.40
2019-05-13T15:14:42.930Z,18.30
2019-05-13T15:17:13.106Z,18.30
2019-05-13T15:19:43.416Z,18.30
2019-05-13T15:22:46.110Z,18.40
2019-05-13T15:25:15.219Z,18.30
2019-05-13T15:27:44.652Z,18.30
2019-05-13T15:30:21.464Z,18.30
2019-05-13T15:33:02.283Z,18.20
2019-05-13T15:35:33.916Z,18.40
2019-05-13T15:38:03.578Z,18.00
2019-05-13T15:40:33.061Z,17.90
2019-05-13T15:43:04.665Z,18.00
2019-05-13T15:45:36.253Z,18.00
2019-05-13T15:48:06.588Z,18.10
2019-05-13T15:50:36.475Z,18.10
2019-05-13T15:53:21.615Z,18.00
2019-05-13T15:56:12.526Z,17.90
2019-05-13T15:58:44.616Z,17.90
2019-05-13T16:01:15.217Z,18.10
2019-05-13T16:03:44.065Z,18.00
2019-05-13T16:06:13.086Z,18.20
2019-05-13T16:08:43.312Z,18.00
2019-05-13T16:11:12.747Z,18.10
2019-05-13T16:13:41.770Z,17.80
2019-05-13T16:16:12.133Z,17.70
2019-05-13T16:18:41.961Z,17.60
2019-05-13T16:21:12.212Z,17.60
2019-05-13T16:23:42.815Z,17.70
2019-05-13T16:26:14.467Z,17.50
2019-05-13T16:28:43.705Z,17.60
2019-05-13T16:31:12.796Z,17.60
2019-05-13T16:33:44.260Z,17.70
2019-05-13T16:36:13.178Z,17.70
2019-05-13T16:38:42.041Z,17.50
2019-05-13T16:41:12.499Z,17.50
2019-05-13T16:43:42.900Z,17.50
2019-05-13T16:46:13.386Z,17.50
2019-05-13T16:48:44.098Z,17.40
2019-05-13T16:51:13.111Z,17.30
2019-05-13T16:53:42.394Z,17.40
2019-05-13T16:56:25.595Z,17.50
2019-05-13T16:58:44.108Z,17.40
2019-05-13T17:01:13.323Z,17.30
2019-05-13T17:03:42.757Z,17.10
2019-05-13T17:06:16.070Z,17.30
2019-05-13T17:08:46.634Z,17.20
2019-05-13T17:11:17.587Z,17.10
2019-05-13T17:13:46.519Z,17.10
2019-05-13T17:16:15.438Z,17.10
2019-05-13T17:18:44.267Z,17.10
2019-05-13T17:21:13.179Z,17.00
2019-05-13T17:23:42.072Z,17.00
2019-05-13T17:26:11.640Z,16.80
2019-05-13T17:28:41.762Z,16.80
2019-05-13T17:31:11.663Z,16.80
2019-05-13T17:33:40.694Z,16.80
2019-05-13T17:36:12.282Z,16.70
2019-05-13T17:38:41.470Z,16.70
2019-05-13T17:41:12.262Z,16.50
2019-05-13T17:43:41.305Z,16.50
2019-05-13T17:46:10.383Z,16.50
2019-05-13T17:48:41.579Z,16.40
2019-05-13T17:51:10.200Z,16.40
2019-05-13T17:53:41.157Z,16.30
2019-05-13T17:56:11.189Z,16.30
2019-05-13T17:58:42.051Z,16.20
2019-05-13T18:01:12.102Z,16.20
2019-05-13T18:03:41.270Z,16.00
2019-05-13T18:06:11.473Z,16.00
2019-05-13T18:08:41.209Z,15.90
2019-05-13T18:11:11.359Z,15.90
2019-05-13T18:13:43.429Z,15.90
2019-05-13T18:16:12.559Z,15.70
2019-05-13T18:18:46.932Z,15.70
2019-05-13T18:21:14.090Z,15.60
2019-05-13T18:23:42.861Z,15.50
2019-05-13T18:26:12.412Z,15.50
2019-05-13T18:28:42.169Z,15.30
2019-05-13T18:31:12.228Z,15.10
2019-05-13T18:33:42.432Z,15.00
2019-05-13T18:36:11.971Z,14.90
2019-05-13T18:38:41.861Z,14.80
2019-05-13T18:41:12.018Z,14.70
2019-05-13T18:43:41.331Z,14.60
2019-05-13T18:46:12.389Z,14.30
2019-05-13T18:48:57.818Z,14.20
2019-05-13T18:51:11.867Z,13.90
2019-05-13T18:53:41.502Z,13.70
2019-05-13T18:56:12.434Z,13.60
2019-05-13T18:58:41.405Z,13.50
2019-05-13T19:01:11.265Z,13.30
2019-05-13T19:03:41.437Z,13.20
2019-05-13T19:06:11.684Z,13.10
2019-05-13T19:08:41.396Z,13.00
2019-05-13T19:11:11.838Z,12.90
2019-05-13T19:13:41.651Z,12.80
2019-05-13T19:16:11.879Z,12.70
2019-05-13T19:18:42.324Z,12.70
2019-05-13T19:21:11.478Z,12.60
2019-05-13T19:23:41.941Z,12.50
2019-05-13T19:26:11.359Z,12.40
2019-05-13T19:28:40.369Z,12.40
2019-05-13T19:31:11.383Z,12.30
2019-05-13T19:33:41.662Z,12.30
2019-05-13T19:36:11.750Z,12.20
2019-05-13T19:38:42.401Z,12.10
2019-05-13T19:41:11.741Z,12.10
2019-05-13T19:43:41.993Z,12.00
2019-05-13T19:46:11.057Z,12.00
2019-05-13T19:48:41.762Z,11.90
2019-05-13T19:51:10.361Z,11.80
2019-05-13T19:53:41.028Z,11.80
2019-05-13T19:56:11.773Z,11.80
2019-05-13T19:58:40.486Z,11.70
2019-05-13T20:01:11.481Z,11.70
2019-05-13T20:03:42.358Z,11.80
2019-05-13T20:06:12.235Z,11.80
2019-05-13T20:08:41.424Z,11.70
2019-05-13T20:11:11.535Z,11.70
2019-05-13T20:13:41.784Z,11.80
2019-05-13T20:16:11.695Z,11.80
2019-05-13T20:18:41.476Z,11.70
2019-05-13T20:21:13.389Z,11.80
2019-05-13T20:23:41.441Z,11.80
2019-05-13T20:26:10.545Z,11.90
2019-05-13T20:28:39.314Z,12.00
2019-05-13T20:31:08.480Z,12.00
2019-05-13T20:33:39.983Z,11.90
2019-05-13T20:36:08.199Z,11.80
2019-05-13T20:38:38.039Z,11.80
2019-05-13T20:41:07.423Z,12.00
2019-05-13T20:43:38.780Z,11.90
2019-05-13T20:46:11.295Z,11.80
2019-05-13T20:48:42.011Z,11.80
2019-05-13T20:51:11.426Z,11.70
2019-05-13T20:53:44.511Z,11.70
2019-05-13T20:56:16.301Z,11.50
2019-05-13T20:58:45.362Z,11.50
2019-05-13T21:01:14.551Z,11.50
2019-05-13T21:03:45.494Z,11.40
2019-05-13T21:06:14.578Z,11.20
2019-05-13T21:08:43.554Z,11.20
2019-05-13T21:11:12.763Z,11.30
2019-05-13T21:13:41.937Z,11.20
2019-05-13T21:16:12.200Z,11.00
2019-05-13T21:18:42.121Z,10.90
2019-05-13T21:21:11.777Z,10.70
2019-05-13T21:23:41.689Z,10.70
2019-05-13T21:26:15.337Z,10.40
2019-05-13T21:28:41.990Z,10.40
2019-05-13T21:31:11.464Z,10.30
2019-05-13T21:33:41.216Z,10.30
2019-05-13T21:36:12.256Z,10.10
2019-05-13T21:38:41.630Z,10.00
2019-05-13T21:41:11.801Z,9.90
2019-05-13T21:43:41.416Z,9.90
2019-05-13T21:46:12.026Z,9.80
2019-05-13T21:48:41.680Z,9.70
2019-05-13T21:51:13.200Z,9.70
2019-05-13T21:53:41.732Z,9.60
2019-05-13T21:56:12.166Z,9.60
2019-05-13T21:58:41.930Z,9.50
2019-05-13T22:01:12.416Z,9.40
2019-05-13T22:03:42.155Z,9.30
2019-05-13T22:06:11.613Z,9.20
2019-05-13T22:08:41.335Z,9.20
2019-05-13T22:11:12.002Z,9.10
2019-05-13T22:13:41.956Z,9.00
2019-05-13T22:16:14.325Z,9.00
2019-05-13T22:18:43.200Z,9.10
2019-05-13T22:21:12.172Z,9.20
2019-05-13T22:23:41.258Z,9.10
2019-05-13T22:26:11.714Z,9.10
2019-05-13T22:28:43.212Z,9.10
2019-05-13T22:31:12.539Z,9.00
2019-05-13T22:33:45.120Z,9.00
2019-05-13T22:36:13.451Z,8.90
2019-05-13T22:38:42.752Z,8.80
2019-05-13T22:41:13.161Z,8.80
2019-05-13T22:43:54.692Z,8.70
2019-05-13T22:46:14.514Z,8.60
2019-05-13T22:48:43.778Z,8.60
2019-05-13T22:51:14.195Z,8.50
2019-05-13T22:53:43.271Z,8.40
2019-05-13T22:56:12.470Z,8.40
2019-05-13T22:58:41.589Z,8.30
2019-05-13T23:01:11.558Z,8.30
2019-05-13T23:03:41.351Z,8.20
2019-05-13T23:06:16.362Z,8.20
2019-05-13T23:08:45.317Z,8.20
2019-05-13T23:11:14.531Z,8.20
2019-05-13T23:13:44.417Z,8.30
2019-05-13T23:16:13.811Z,8.40
2019-05-13T23:18:42.636Z,8.20
2019-05-13T23:21:11.613Z,8.40
2019-05-13T23:23:40.805Z,8.60
2019-05-13T23:26:11.680Z,8.70
2019-05-13T23:28:41.618Z,8.80
2019-05-13T23:31:12.346Z,9.20
2019-05-13T23:33:42.701Z,9.40
2019-05-13T23:36:12.530Z,9.50
2019-05-13T23:38:41.639Z,9.50
2019-05-13T23:41:11.674Z,9.40
2019-05-13T23:43:41.351Z,9.40
2019-05-13T23:46:11.917Z,9.30
2019-05-13T23:48:42.110Z,9.40
2019-05-13T23:51:12.910Z,9.20
2019-05-13T23:53:42.692Z,9.10
2019-05-13T23:56:12.555Z,8.90
2019-05-13T23:58:42.367Z,8.80
